createdAt,value
2018-05-05T00:00:38.229Z,0.00
2018-05-05T00:01:39.102Z,0.00
2018-05-05T00:02:38.235Z,0.00
2018-05-05T00:03:38.191Z,0.00
2018-05-05T00:04:38.192Z,0.00
2018-05-05T00:05:38.198Z,0.00
2018-05-05T00:06:38.146Z,0.00
2018-05-05T00:07:38.136Z,0.00
2018-05-05T00:08:38.145Z,0.00
2018-05-05T00:09:38.620Z,0.00
2018-05-05T00:10:38.127Z,0.00
2018-05-05T00:11:38.124Z,0.00
2018-05-05T00:12:38.620Z,0.00
2018-05-05T00:13:38.065Z,0.00
2018-05-05T00:14:38.072Z,0.00
2018-05-05T00:15:38.039Z,0.00
2018-05-05T00:16:38.044Z,0.00
2018-05-05T00:17:38.046Z,0.00
2018-05-05T00:18:38.018Z,0.00
2018-05-05T00:19:38.047Z,0.00
2018-05-05T00:20:37.991Z,0.00
2018-05-05T00:21:38.012Z,0.00
2018-05-05T00:22:37.968Z,0.00
2018-05-05T00:23:37.969Z,0.00
2018-05-05T00:24:37.936Z,0.00
2018-05-05T00:25:37.942Z,0.00
2018-05-05T00:26:37.917Z,0.00
2018-05-05T00:27:38.051Z,0.00
2018-05-05T00:28:37.895Z,0.00
2018-05-05T00:29:37.880Z,0.00
2018-05-05T00:30:37.874Z,0.00
2018-05-05T00:31:37.864Z,0.00
2018-05-05T00:32:37.851Z,0.00
2018-05-05T00:33:37.879Z,0.00
2018-05-05T00:34:37.871Z,0.00
2018-05-05T00:35:37.813Z,0.00
2018-05-05T00:36:38.613Z,0.00
2018-05-05T00:37:37.802Z,0.00
2018-05-05T00:38:37.763Z,0.00
2018-05-05T00:39:37.788Z,0.00
2018-05-05T00:40:37.765Z,0.00
2018-05-05T00:41:37.784Z,0.00
2018-05-05T00:42:37.738Z,0.00
2018-05-05T00:43:37.718Z,0.00
2018-05-05T00:44:37.711Z,0.00
2018-05-05T00:45:38.620Z,0.00
2018-05-05T00:46:37.744Z,0.00
2018-05-05T00:47:37.673Z,0.00
2018-05-05T00:48:37.656Z,0.00
2018-05-05T00:49:37.643Z,0.00
2018-05-05T00:50:37.704Z,0.00
2018-05-05T00:51:37.649Z,0.00
2018-05-05T00:52:37.643Z,0.00
2018-05-05T00:53:37.597Z,0.00
2018-05-05T00:54:37.590Z,0.00
2018-05-05T00:55:37.574Z,0.00
2018-05-05T00:56:37.606Z,0.00
2018-05-05T00:57:37.539Z,0.00
2018-05-05T00:58:37.540Z,0.00
2018-05-05T00:59:37.531Z,0.00
2018-05-05T01:00:37.521Z,0.00
2018-05-05T01:01:37.494Z,0.00
2018-05-05T01:02:37.524Z,0.00
2018-05-05T01:03:37.517Z,0.00
2018-05-05T01:04:37.467Z,0.00
2018-05-05T01:05:37.472Z,0.00
2018-05-05T01:06:37.441Z,0.00
2018-05-05T01:07:37.440Z,0.00
2018-05-05T01:08:37.441Z,0.00
2018-05-05T01:09:37.419Z,0.00
2018-05-05T01:10:37.387Z,0.00
2018-05-05T01:11:37.386Z,0.00
2018-05-05T01:12:37.382Z,0.00
2018-05-05T01:13:37.400Z,0.00
2018-05-05T01:14:37.348Z,0.00
2018-05-05T01:15:37.331Z,0.00
2018-05-05T01:16:37.366Z,0.00
2018-05-05T01:17:37.314Z,0.00
2018-05-05T01:18:37.323Z,0.00
2018-05-05T01:19:37.280Z,0.00
2018-05-05T01:20:37.272Z,0.00
2018-05-05T01:21:37.263Z,0.00
2018-05-05T01:22:37.241Z,0.00
2018-05-05T01:23:37.288Z,0.00
2018-05-05T01:24:37.256Z,0.00
2018-05-05T01:25:37.209Z,0.00
2018-05-05T01:26:37.206Z,0.00
2018-05-05T01:27:37.192Z,0.00
2018-05-05T01:28:37.182Z,0.00
2018-05-05T01:29:37.162Z,0.00
2018-05-05T01:30:37.165Z,0.00
2018-05-05T01:31:37.137Z,0.00
2018-05-05T01:32:37.148Z,0.00
2018-05-05T01:33:37.119Z,0.00
2018-05-05T01:34:37.128Z,0.00
2018-05-05T01:35:37.081Z,0.00
2018-05-05T01:36:37.086Z,0.00
2018-05-05T01:37:37.056Z,0.00
2018-05-05T01:38:37.051Z,0.00
2018-05-05T01:39:37.083Z,0.00
2018-05-05T01:40:37.021Z,0.00
2018-05-05T01:41:37.013Z,0.00
2018-05-05T01:42:36.995Z,0.00
2018-05-05T01:43:36.993Z,0.00
2018-05-05T01:44:36.995Z,0.00
2018-05-05T01:45:36.966Z,0.00
2018-05-05T01:46:36.971Z,0.00
2018-05-05T01:47:36.941Z,0.00
2018-05-05T01:48:36.938Z,0.00
2018-05-05T01:49:41.625Z,0.00
2018-05-05T01:50:36.939Z,0.00
2018-05-05T01:51:36.907Z,0.00
2018-05-05T01:52:36.890Z,0.00
2018-05-05T01:53:36.880Z,0.00
2018-05-05T01:54:36.860Z,0.00
2018-05-05T01:55:36.890Z,0.00
2018-05-05T01:56:36.841Z,0.00
2018-05-05T01:57:36.833Z,0.00
2018-05-05T01:58:36.816Z,0.00
2018-05-05T01:59:36.800Z,0.00
2018-05-05T02:00:37.141Z,0.00
2018-05-05T02:01:36.776Z,0.00
2018-05-05T02:02:36.836Z,0.00
2018-05-05T02:03:36.758Z,0.00
2018-05-05T02:04:36.744Z,0.00
2018-05-05T02:05:36.741Z,0.00
2018-05-05T02:06:36.732Z,0.00
2018-05-05T02:07:36.702Z,0.00
2018-05-05T02:08:36.734Z,0.00
2018-05-05T02:09:36.672Z,0.00
2018-05-05T02:10:36.716Z,0.00
2018-05-05T02:11:36.666Z,0.00
2018-05-05T02:12:36.647Z,0.00
2018-05-05T02:13:36.635Z,0.00
2018-05-05T02:14:36.615Z,0.00
2018-05-05T02:15:36.631Z,0.00
2018-05-05T02:16:36.607Z,0.00
2018-05-05T02:17:36.589Z,0.00
2018-05-05T02:18:36.574Z,0.00
2018-05-05T02:19:36.554Z,0.00
2018-05-05T02:20:36.543Z,0.00
2018-05-05T02:21:36.572Z,0.00
2018-05-05T02:22:36.524Z,0.00
2018-05-05T02:23:36.522Z,0.00
2018-05-05T02:24:36.510Z,0.00
2018-05-05T02:25:36.509Z,0.00
2018-05-05T02:26:36.506Z,0.00
2018-05-05T02:27:36.458Z,0.00
2018-05-05T02:28:36.456Z,0.00
2018-05-05T02:29:36.454Z,0.00
2018-05-05T02:30:36.425Z,0.00
2018-05-05T02:31:36.425Z,0.00
2018-05-05T02:32:36.401Z,0.00
2018-05-05T02:33:36.433Z,0.00
2018-05-05T02:34:36.391Z,0.00
2018-05-05T02:35:36.373Z,0.00
2018-05-05T02:36:36.372Z,0.00
2018-05-05T02:37:36.347Z,0.00
2018-05-05T02:38:36.349Z,0.00
2018-05-05T02:39:36.328Z,0.00
2018-05-05T02:40:36.318Z,0.00
2018-05-05T02:41:36.294Z,0.00
2018-05-05T02:42:36.330Z,0.00
2018-05-05T02:43:36.279Z,0.00
2018-05-05T02:44:36.295Z,0.00
2018-05-05T02:45:36.258Z,0.00
2018-05-05T02:46:36.229Z,0.00
2018-05-05T02:47:36.235Z,0.00
2018-05-05T02:48:36.204Z,0.00
2018-05-05T02:49:36.232Z,0.00
2018-05-05T02:50:36.189Z,0.00
2018-05-05T02:51:36.187Z,0.00
2018-05-05T02:52:36.165Z,0.00
2018-05-05T02:53:36.152Z,0.00
2018-05-05T02:54:36.147Z,0.00
2018-05-05T02:55:36.172Z,0.00
2018-05-05T02:56:36.118Z,0.00
2018-05-05T02:57:36.099Z,0.00
2018-05-05T02:58:36.090Z,0.00
2018-05-05T02:59:36.178Z,0.00
2018-05-05T03:00:36.064Z,0.00
2018-05-05T03:01:36.052Z,0.00
2018-05-05T03:02:36.040Z,0.00
2018-05-05T03:03:36.020Z,0.00
2018-05-05T03:04:36.006Z,0.00
2018-05-05T03:05:36.001Z,0.00
2018-05-05T03:06:36.007Z,0.00
2018-05-05T03:07:35.968Z,0.00
2018-05-05T03:08:35.999Z,0.00
2018-05-05T03:09:35.950Z,0.00
2018-05-05T03:10:35.945Z,0.00
2018-05-05T03:11:35.973Z,0.00
2018-05-05T03:12:35.938Z,0.00
2018-05-05T03:13:35.905Z,0.00
2018-05-05T03:14:35.960Z,0.00
2018-05-05T03:15:35.873Z,0.00
2018-05-05T03:16:35.858Z,0.00
2018-05-05T03:17:35.852Z,0.00
2018-05-05T03:18:35.834Z,0.00
2018-05-05T03:19:35.829Z,0.00
2018-05-05T03:20:35.809Z,0.00
2018-05-05T03:21:35.830Z,0.00
2018-05-05T03:22:35.794Z,0.00
2018-05-05T03:23:35.773Z,0.00
2018-05-05T03:24:35.757Z,0.00
2018-05-05T03:25:35.753Z,0.00
2018-05-05T03:26:35.737Z,0.00
2018-05-05T03:27:35.805Z,0.00
2018-05-05T03:28:35.720Z,0.00
2018-05-05T03:29:35.700Z,0.00
2018-05-05T03:30:35.735Z,0.00
2018-05-05T03:31:35.675Z,0.00
2018-05-05T03:32:35.663Z,0.00
2018-05-05T03:33:35.643Z,0.00
2018-05-05T03:34:35.636Z,0.00
2018-05-05T03:35:35.682Z,0.00
2018-05-05T03:36:35.605Z,0.00
2018-05-05T03:37:35.594Z,0.00
2018-05-05T03:38:35.592Z,0.00
2018-05-05T03:39:35.562Z,0.00
2018-05-05T03:40:35.567Z,0.00
2018-05-05T03:41:35.553Z,0.00
2018-05-05T03:42:35.589Z,0.00
2018-05-05T03:43:35.518Z,0.00
2018-05-05T03:44:35.508Z,0.00
2018-05-05T03:45:35.512Z,0.00
2018-05-05T03:46:35.486Z,0.00
2018-05-05T03:47:35.476Z,0.00
2018-05-05T03:48:35.506Z,0.00
2018-05-05T03:49:35.443Z,0.00
2018-05-05T03:50:35.435Z,0.00
2018-05-05T03:51:35.428Z,0.00
2018-05-05T03:52:35.575Z,0.00
2018-05-05T03:53:35.400Z,0.00
2018-05-05T03:54:35.385Z,0.00
2018-05-05T03:55:35.370Z,0.00
2018-05-05T03:56:35.364Z,0.00
2018-05-05T03:57:35.348Z,0.00
2018-05-05T03:58:35.407Z,0.00
2018-05-05T03:59:35.334Z,0.00
2018-05-05T04:00:35.309Z,0.00
2018-05-05T04:01:35.290Z,0.00
2018-05-05T04:02:35.273Z,0.00
2018-05-05T04:03:35.260Z,0.00
2018-05-05T04:04:35.404Z,5.63
2018-05-05T04:05:35.230Z,5.63
2018-05-05T04:06:35.223Z,5.63
2018-05-05T04:07:35.231Z,5.63
2018-05-05T04:08:35.200Z,5.63
2018-05-05T04:09:35.196Z,5.63
2018-05-05T04:10:35.188Z,5.63
2018-05-05T04:11:35.183Z,5.63
2018-05-05T04:12:35.150Z,5.63
2018-05-05T04:13:35.138Z,5.63
2018-05-05T04:14:35.169Z,5.63
2018-05-05T04:15:35.125Z,5.63
2018-05-05T04:16:35.132Z,5.63
2018-05-05T04:17:35.093Z,5.63
2018-05-05T04:18:35.077Z,5.63
2018-05-05T04:19:35.193Z,5.63
2018-05-05T04:20:35.051Z,11.25
2018-05-05T04:21:35.043Z,11.25
2018-05-05T04:22:35.031Z,11.25
2018-05-05T04:23:35.013Z,11.25
2018-05-05T04:24:34.992Z,11.25
2018-05-05T04:25:34.986Z,11.25
2018-05-05T04:26:35.202Z,11.25
2018-05-05T04:27:34.992Z,11.25
2018-05-05T04:28:34.956Z,11.25
2018-05-05T04:29:34.933Z,11.25
2018-05-05T04:30:34.920Z,11.25
2018-05-05T04:31:35.692Z,11.25
2018-05-05T04:32:34.904Z,11.25
2018-05-05T04:33:34.896Z,16.88
2018-05-05T04:34:34.881Z,16.88
2018-05-05T04:35:34.851Z,16.88
2018-05-05T04:36:34.860Z,16.88
2018-05-05T04:37:34.858Z,16.88
2018-05-05T04:38:34.824Z,16.88
2018-05-05T04:39:34.808Z,16.88
2018-05-05T04:40:34.808Z,16.88
2018-05-05T04:41:34.786Z,16.88
2018-05-05T04:42:34.771Z,16.88
2018-05-05T04:43:34.764Z,16.88
2018-05-05T04:44:35.702Z,16.88
2018-05-05T04:45:34.738Z,16.88
2018-05-05T04:46:34.729Z,22.50
2018-05-05T04:47:34.776Z,22.50
2018-05-05T04:48:34.705Z,22.50
2018-05-05T04:49:34.692Z,22.50
2018-05-05T04:50:34.678Z,22.50
2018-05-05T04:51:34.661Z,22.50
2018-05-05T04:52:34.646Z,22.50
2018-05-05T04:53:34.662Z,22.50
2018-05-05T04:54:34.626Z,22.50
2018-05-05T04:55:34.620Z,22.50
2018-05-05T04:56:34.591Z,22.50
2018-05-05T04:57:34.578Z,22.50
2018-05-05T04:58:34.608Z,22.50
2018-05-05T04:59:34.557Z,22.50
2018-05-05T05:00:34.530Z,22.50
2018-05-05T05:01:34.573Z,22.50
2018-05-05T05:02:34.571Z,28.13
2018-05-05T05:03:34.511Z,28.13
2018-05-05T05:04:34.493Z,28.13
2018-05-05T05:05:34.520Z,28.13
2018-05-05T05:06:34.468Z,28.13
2018-05-05T05:07:34.452Z,28.13
2018-05-05T05:08:34.443Z,28.13
2018-05-05T05:09:34.454Z,28.13
2018-05-05T05:10:34.417Z,28.13
2018-05-05T05:11:34.414Z,28.13
2018-05-05T05:12:34.426Z,28.13
2018-05-05T05:13:34.387Z,28.13
2018-05-05T05:14:34.358Z,28.13
2018-05-05T05:15:34.395Z,28.13
2018-05-05T05:16:34.495Z,28.13
2018-05-05T05:17:34.317Z,28.13
2018-05-05T05:18:34.314Z,28.13
2018-05-05T05:19:34.308Z,28.13
2018-05-05T05:20:34.289Z,28.13
2018-05-05T05:21:34.319Z,28.13
2018-05-05T05:22:34.650Z,28.13
2018-05-05T05:23:34.247Z,28.13
2018-05-05T05:24:34.246Z,28.13
2018-05-05T05:25:34.223Z,28.13
2018-05-05T05:26:34.212Z,28.13
2018-05-05T05:27:34.208Z,28.13
2018-05-05T05:28:34.218Z,28.13
2018-05-05T05:29:34.185Z,28.13
2018-05-05T05:30:34.167Z,28.13
2018-05-05T05:31:34.144Z,28.13
2018-05-05T05:32:34.135Z,28.13
2018-05-05T05:33:34.121Z,28.13
2018-05-05T05:34:34.139Z,28.13
2018-05-05T05:35:34.101Z,28.13
2018-05-05T05:36:34.091Z,28.13
2018-05-05T05:37:34.077Z,33.75
2018-05-05T05:38:34.066Z,33.75
2018-05-05T05:39:34.109Z,33.75
2018-05-05T05:40:34.045Z,33.75
2018-05-05T05:41:34.018Z,33.75
2018-05-05T05:42:34.019Z,33.75
2018-05-05T05:43:34.001Z,33.75
2018-05-05T05:44:33.981Z,33.75
2018-05-05T05:45:34.004Z,33.75
2018-05-05T05:46:33.997Z,33.75
2018-05-05T05:47:33.987Z,33.75
2018-05-05T05:48:33.932Z,33.75
2018-05-05T05:49:33.927Z,33.75
2018-05-05T05:50:33.915Z,33.75
2018-05-05T05:51:33.907Z,33.75
2018-05-05T05:52:34.739Z,33.75
2018-05-05T05:53:33.885Z,33.75
2018-05-05T05:54:33.885Z,33.75
2018-05-05T05:55:33.942Z,33.75
2018-05-05T05:56:33.982Z,39.38
2018-05-05T05:57:33.838Z,33.75
2018-05-05T05:58:33.832Z,33.75
2018-05-05T05:59:33.807Z,39.38
2018-05-05T06:00:33.792Z,39.38
2018-05-05T06:01:33.795Z,39.38
2018-05-05T06:02:33.830Z,39.38
2018-05-05T06:03:33.752Z,39.38
2018-05-05T06:04:33.745Z,39.38
2018-05-05T06:05:33.731Z,39.38
2018-05-05T06:06:33.749Z,39.38
2018-05-05T06:07:33.711Z,39.38
2018-05-05T06:08:33.704Z,39.38
2018-05-05T06:09:33.690Z,45.00
2018-05-05T06:10:33.675Z,45.00
2018-05-05T06:11:33.667Z,45.00
2018-05-05T06:12:33.660Z,45.00
2018-05-05T06:13:34.203Z,45.00
2018-05-05T06:14:33.631Z,45.00
2018-05-05T06:15:33.620Z,45.00
2018-05-05T06:16:33.651Z,45.00
2018-05-05T06:17:33.585Z,45.00
2018-05-05T06:18:33.583Z,45.00
2018-05-05T06:19:33.608Z,45.00
2018-05-05T06:20:33.553Z,45.00
2018-05-05T06:21:33.548Z,45.00
2018-05-05T06:22:33.545Z,45.00
2018-05-05T06:23:33.546Z,45.00
2018-05-05T06:24:33.588Z,45.00
2018-05-05T06:25:33.495Z,45.00
2018-05-05T06:26:33.478Z,45.00
2018-05-05T06:27:33.474Z,45.00
2018-05-05T06:28:33.495Z,45.00
2018-05-05T06:29:33.479Z,45.00
2018-05-05T06:30:33.475Z,45.00
2018-05-05T06:31:33.436Z,45.00
2018-05-05T06:32:33.418Z,45.00
2018-05-05T06:33:33.406Z,45.00
2018-05-05T06:34:33.430Z,45.00
2018-05-05T06:35:33.403Z,45.00
2018-05-05T06:36:33.373Z,45.00
2018-05-05T06:37:33.367Z,45.00
2018-05-05T06:38:33.364Z,45.00
2018-05-05T06:39:33.376Z,45.00
2018-05-05T06:40:33.349Z,45.00
2018-05-05T06:41:33.314Z,45.00
2018-05-05T06:42:33.333Z,45.00
2018-05-05T06:43:33.304Z,45.00
2018-05-05T06:44:33.285Z,45.00
2018-05-05T06:45:33.273Z,45.00
2018-05-05T06:46:33.265Z,45.00
2018-05-05T06:47:33.298Z,45.00
2018-05-05T06:48:33.242Z,45.00
2018-05-05T06:49:33.233Z,45.00
2018-05-05T06:50:33.228Z,45.00
2018-05-05T06:51:33.205Z,45.00
2018-05-05T06:52:33.205Z,45.00
2018-05-05T06:53:33.256Z,45.00
2018-05-05T06:54:33.264Z,45.00
2018-05-05T06:55:33.219Z,45.00
2018-05-05T06:56:34.707Z,45.00
2018-05-05T06:57:33.145Z,45.00
2018-05-05T06:58:33.133Z,45.00
2018-05-05T06:59:33.133Z,45.00
2018-05-05T07:00:33.122Z,45.00
2018-05-05T07:01:33.110Z,45.00
2018-05-05T07:02:33.110Z,45.00
2018-05-05T07:03:33.093Z,45.00
2018-05-05T07:04:33.073Z,45.00
2018-05-05T07:05:33.125Z,45.00
2018-05-05T07:06:33.055Z,45.00
2018-05-05T07:07:33.061Z,45.00
2018-05-05T07:08:33.043Z,45.00
2018-05-05T07:09:33.030Z,45.00
2018-05-05T07:10:33.022Z,45.00
2018-05-05T07:11:33.084Z,45.00
2018-05-05T07:12:33.019Z,45.00
2018-05-05T07:13:32.991Z,45.00
2018-05-05T07:14:32.972Z,45.00
2018-05-05T07:15:33.028Z,50.63
2018-05-05T07:16:32.961Z,50.63
2018-05-05T07:17:32.969Z,50.63
2018-05-05T07:18:32.948Z,50.63
2018-05-05T07:19:32.933Z,45.00
2018-05-05T07:20:32.925Z,45.00
2018-05-05T07:21:32.911Z,45.00
2018-05-05T07:22:32.956Z,50.63
2018-05-05T07:23:32.888Z,50.63
2018-05-05T07:24:32.870Z,50.63
2018-05-05T07:25:32.857Z,50.63
2018-05-05T07:26:32.852Z,50.63
2018-05-05T07:27:33.041Z,50.63
2018-05-05T07:28:32.891Z,50.63
2018-05-05T07:29:32.829Z,50.63
2018-05-05T07:30:32.851Z,50.63
2018-05-05T07:31:32.812Z,50.63
2018-05-05T07:32:32.913Z,50.63
2018-05-05T07:33:32.779Z,56.25
2018-05-05T07:34:32.783Z,56.25
2018-05-05T07:35:32.798Z,56.25
2018-05-05T07:36:33.740Z,56.25
2018-05-05T07:37:32.738Z,56.25
2018-05-05T07:38:32.747Z,56.25
2018-05-05T07:39:32.730Z,56.25
2018-05-05T07:40:32.757Z,56.25
2018-05-05T07:41:32.996Z,56.25
2018-05-05T07:42:32.754Z,56.25
2018-05-05T07:43:32.733Z,61.88
2018-05-05T07:44:32.676Z,56.25
2018-05-05T07:45:32.662Z,56.25
2018-05-05T07:46:32.672Z,61.88
2018-05-05T07:47:32.642Z,61.88
2018-05-05T07:48:32.712Z,61.88
2018-05-05T07:49:32.636Z,61.88
2018-05-05T07:50:32.632Z,61.88
2018-05-05T07:51:32.647Z,61.88
2018-05-05T07:52:32.598Z,61.88
2018-05-05T07:53:32.598Z,61.88
2018-05-05T07:54:32.594Z,67.50
2018-05-05T07:55:32.569Z,67.50
2018-05-05T07:56:32.806Z,67.50
2018-05-05T07:57:32.554Z,67.50
2018-05-05T07:58:32.579Z,67.50
2018-05-05T07:59:32.568Z,67.50
2018-05-05T08:00:32.526Z,73.13
2018-05-05T08:01:32.506Z,73.13
2018-05-05T08:02:32.508Z,73.13
2018-05-05T08:03:32.601Z,73.13
2018-05-05T08:04:32.482Z,73.13
2018-05-05T08:05:32.474Z,67.50
2018-05-05T08:06:32.659Z,67.50
2018-05-05T08:07:32.458Z,67.50
2018-05-05T08:08:32.439Z,67.50
2018-05-05T08:09:32.696Z,67.50
2018-05-05T08:10:34.755Z,67.50
2018-05-05T08:11:32.405Z,67.50
2018-05-05T08:12:32.462Z,73.13
2018-05-05T08:13:32.405Z,73.13
2018-05-05T08:14:32.382Z,73.13
2018-05-05T08:15:32.601Z,73.13
2018-05-05T08:16:32.371Z,73.13
2018-05-05T08:17:32.344Z,78.75
2018-05-05T08:18:32.347Z,78.75
2018-05-05T08:19:32.330Z,84.38
2018-05-05T08:20:32.329Z,78.75
2018-05-05T08:21:32.384Z,84.38
2018-05-05T08:22:32.310Z,84.38
2018-05-05T08:23:32.297Z,84.38
2018-05-05T08:24:32.289Z,78.75
2018-05-05T08:25:32.285Z,78.75
2018-05-05T08:26:32.268Z,78.75
2018-05-05T08:27:32.396Z,78.75
2018-05-05T08:28:32.248Z,84.38
2018-05-05T08:29:32.245Z,84.38
2018-05-05T08:30:32.226Z,90.00
2018-05-05T08:31:32.247Z,84.38
2018-05-05T08:32:32.220Z,90.00
2018-05-05T08:33:32.245Z,95.63
2018-05-05T08:34:32.195Z,95.63
2018-05-05T08:35:32.182Z,95.63
2018-05-05T08:36:32.751Z,101.25
2018-05-05T08:37:32.771Z,106.88
2018-05-05T08:38:32.196Z,106.88
2018-05-05T08:39:32.209Z,106.88
2018-05-05T08:40:32.139Z,90.00
2018-05-05T08:41:32.760Z,112.50
2018-05-05T08:42:32.120Z,129.38
2018-05-05T08:43:32.148Z,123.75
2018-05-05T08:44:32.104Z,129.38
2018-05-05T08:45:32.111Z,135.00
2018-05-05T08:46:32.086Z,135.00
2018-05-05T08:47:32.081Z,112.50
2018-05-05T08:48:32.075Z,101.25
2018-05-05T08:49:32.060Z,106.88
2018-05-05T08:50:32.067Z,112.50
2018-05-05T08:51:32.054Z,118.13
2018-05-05T08:52:32.119Z,135.00
2018-05-05T08:53:32.055Z,129.38
2018-05-05T08:54:32.023Z,118.13
2018-05-05T08:55:32.024Z,123.75
2018-05-05T08:56:32.113Z,140.63
2018-05-05T08:57:33.816Z,135.00
2018-05-05T08:58:32.000Z,106.88
2018-05-05T08:59:32.769Z,101.25
2018-05-05T09:00:32.003Z,123.75
2018-05-05T09:01:31.976Z,118.13
2018-05-05T09:02:31.970Z,112.50
2018-05-05T09:03:31.956Z,112.50
2018-05-05T09:04:31.940Z,90.00
2018-05-05T09:05:31.973Z,95.63
2018-05-05T09:06:31.936Z,112.50
2018-05-05T09:07:31.967Z,129.38
2018-05-05T09:08:31.923Z,140.63
2018-05-05T09:09:31.911Z,151.88
2018-05-05T09:10:32.762Z,140.63
2018-05-05T09:11:31.896Z,123.75
2018-05-05T09:12:31.936Z,123.75
2018-05-05T09:13:31.894Z,118.13
2018-05-05T09:14:31.889Z,123.75
2018-05-05T09:15:31.878Z,118.13
2018-05-05T09:16:31.872Z,112.50
2018-05-05T09:17:31.859Z,101.25
2018-05-05T09:18:31.864Z,118.13
2018-05-05T09:19:31.934Z,112.50
2018-05-05T09:20:32.764Z,112.50
2018-05-05T09:21:32.278Z,135.00
2018-05-05T09:22:31.887Z,146.25
2018-05-05T09:23:31.854Z,129.38
2018-05-05T09:24:31.840Z,118.13
2018-05-05T09:25:31.815Z,112.50
2018-05-05T09:26:31.796Z,101.25
2018-05-05T09:27:32.279Z,112.50
2018-05-05T09:28:31.794Z,123.75
2018-05-05T09:29:31.859Z,129.38
2018-05-05T09:30:32.781Z,129.38
2018-05-05T09:31:31.779Z,129.38
2018-05-05T09:32:31.798Z,123.75
2018-05-05T09:33:31.775Z,129.38
2018-05-05T09:34:31.805Z,129.38
2018-05-05T09:35:31.750Z,135.00
2018-05-05T09:36:31.743Z,140.63
2018-05-05T09:37:31.751Z,146.25
2018-05-05T09:38:31.759Z,146.25
2018-05-05T09:39:31.732Z,146.25
2018-05-05T09:40:31.743Z,151.88
2018-05-05T09:41:31.729Z,151.88
2018-05-05T09:42:31.738Z,140.63
2018-05-05T09:43:31.753Z,140.63
2018-05-05T09:44:31.715Z,146.25
2018-05-05T09:45:31.813Z,140.63
2018-05-05T09:46:31.716Z,140.63
2018-05-05T09:47:31.841Z,151.88
2018-05-05T09:48:31.710Z,151.88
2018-05-05T09:49:31.720Z,151.88
2018-05-05T09:50:31.698Z,157.50
2018-05-05T09:51:31.735Z,157.50
2018-05-05T09:52:31.692Z,163.13
2018-05-05T09:53:31.699Z,168.75
2018-05-05T09:54:31.705Z,174.38
2018-05-05T09:55:31.716Z,174.38
2018-05-05T09:56:31.745Z,180.00
2018-05-05T09:57:31.702Z,185.63
2018-05-05T09:58:31.704Z,196.88
2018-05-05T09:59:31.706Z,202.50
2018-05-05T10:00:31.704Z,213.75
2018-05-05T10:01:31.716Z,219.38
2018-05-05T10:02:31.720Z,225.00
2018-05-05T10:03:31.698Z,230.63
2018-05-05T10:04:31.705Z,236.25
2018-05-05T10:05:31.728Z,241.88
2018-05-05T10:06:31.712Z,258.75
2018-05-05T10:07:31.841Z,275.63
2018-05-05T10:08:31.712Z,331.88
2018-05-05T10:09:31.734Z,371.25
2018-05-05T10:10:31.743Z,185.63
2018-05-05T10:11:31.717Z,225.00
2018-05-05T10:12:31.713Z,405.00
2018-05-05T10:13:31.763Z,450.00
2018-05-05T10:14:31.727Z,466.88
2018-05-05T10:15:31.735Z,455.63
2018-05-05T10:16:31.732Z,517.50
2018-05-05T10:17:31.745Z,551.25
2018-05-05T10:18:31.727Z,601.88
2018-05-05T10:19:31.732Z,697.50
2018-05-05T10:20:31.776Z,1226.25
2018-05-05T10:21:31.750Z,2407.50
2018-05-05T10:22:31.755Z,2941.88
2018-05-05T10:23:31.756Z,3155.63
2018-05-05T10:24:31.898Z,3487.50
2018-05-05T10:25:31.763Z,3521.25
2018-05-05T10:26:32.307Z,3498.75
2018-05-05T10:27:31.843Z,4016.25
2018-05-05T10:28:31.766Z,3971.25
2018-05-05T10:29:31.805Z,2565.00
2018-05-05T10:30:31.795Z,3780.00
2018-05-05T10:31:31.840Z,3256.88
2018-05-05T10:32:31.857Z,3847.50
2018-05-05T10:33:31.791Z,410.63
2018-05-05T10:34:31.811Z,444.38
2018-05-05T10:35:31.795Z,793.13
2018-05-05T10:36:31.804Z,866.25
2018-05-05T10:37:31.806Z,2542.50
2018-05-05T10:38:31.847Z,1929.38
2018-05-05T10:39:31.817Z,427.50
2018-05-05T10:40:31.818Z,1018.13
2018-05-05T10:41:31.834Z,669.38
2018-05-05T10:42:31.835Z,343.13
2018-05-05T10:43:31.822Z,118.13
2018-05-05T10:44:31.877Z,736.88
2018-05-05T10:45:31.831Z,466.88
2018-05-05T10:46:31.834Z,433.13
2018-05-05T10:47:31.824Z,129.38
2018-05-05T10:48:31.865Z,135.00
2018-05-05T10:49:31.849Z,151.88
2018-05-05T10:50:31.848Z,174.38
2018-05-05T10:51:31.836Z,106.88
2018-05-05T10:52:31.899Z,208.13
2018-05-05T10:53:31.879Z,123.75
2018-05-05T10:54:31.872Z,106.88
2018-05-05T10:55:31.927Z,247.50
2018-05-05T10:56:31.833Z,140.63
2018-05-05T10:57:31.852Z,129.38
2018-05-05T10:58:31.847Z,163.13
2018-05-05T10:59:31.872Z,112.50
2018-05-05T11:00:31.882Z,135.00
2018-05-05T11:01:31.845Z,157.50
2018-05-05T11:02:34.371Z,140.63
2018-05-05T11:03:32.352Z,151.88
2018-05-05T11:04:32.352Z,135.00
2018-05-05T11:05:32.565Z,185.63
2018-05-05T11:06:32.461Z,877.50
2018-05-05T11:07:32.456Z,826.88
2018-05-05T11:08:32.825Z,241.88
2018-05-05T11:09:31.822Z,191.25
2018-05-05T11:10:31.867Z,247.50
2018-05-05T11:11:31.805Z,365.63
2018-05-05T11:12:31.818Z,258.75
2018-05-05T11:13:31.826Z,382.50
2018-05-05T11:14:31.800Z,241.88
2018-05-05T11:15:31.781Z,1530.00
2018-05-05T11:16:31.780Z,1940.63
2018-05-05T11:17:31.789Z,1940.63
2018-05-05T11:18:31.851Z,337.50
2018-05-05T11:19:31.833Z,365.63
2018-05-05T11:20:31.766Z,1029.38
2018-05-05T11:21:31.767Z,973.13
2018-05-05T11:22:31.786Z,1018.13
2018-05-05T11:23:31.752Z,1181.25
2018-05-05T11:24:31.767Z,337.50
2018-05-05T11:25:31.751Z,298.13
2018-05-05T11:26:31.761Z,517.50
2018-05-05T11:27:31.739Z,894.38
2018-05-05T11:28:31.867Z,2120.63
2018-05-05T11:29:31.743Z,2278.13
2018-05-05T11:30:31.750Z,1946.25
2018-05-05T11:31:31.732Z,4331.25
2018-05-05T11:32:31.740Z,4128.75
2018-05-05T11:33:31.718Z,4213.13
2018-05-05T11:34:32.346Z,4252.50
2018-05-05T11:35:31.726Z,4168.13
2018-05-05T11:36:31.713Z,4179.38
2018-05-05T11:37:31.729Z,4303.13
2018-05-05T11:38:31.724Z,4466.25
2018-05-05T11:39:31.723Z,4336.88
2018-05-05T11:40:31.787Z,4421.25
2018-05-05T11:41:31.717Z,4488.75
2018-05-05T11:42:31.718Z,4471.88
2018-05-05T11:43:31.714Z,4320.00
2018-05-05T11:44:31.749Z,4128.75
2018-05-05T11:45:31.716Z,4134.38
2018-05-05T11:46:31.730Z,4027.50
2018-05-05T11:47:31.738Z,4111.88
2018-05-05T11:48:31.737Z,4201.88
2018-05-05T11:49:31.936Z,4252.50
2018-05-05T11:50:31.787Z,4381.88
2018-05-05T11:51:31.741Z,4359.38
2018-05-05T11:52:31.741Z,4365.00
2018-05-05T11:53:31.754Z,4381.88
2018-05-05T11:54:31.788Z,4443.75
2018-05-05T11:55:31.757Z,1496.25
2018-05-05T11:56:31.749Z,4348.13
2018-05-05T11:57:31.790Z,4235.63
2018-05-05T11:58:31.767Z,4033.13
2018-05-05T11:59:31.766Z,270.00
2018-05-05T12:00:31.768Z,1338.75
2018-05-05T12:01:32.375Z,331.88
2018-05-05T12:02:31.787Z,3971.25
2018-05-05T12:03:31.889Z,1254.38
2018-05-05T12:04:31.781Z,787.50
2018-05-05T12:05:31.801Z,3082.50
2018-05-05T12:06:31.797Z,4089.38
2018-05-05T12:07:31.799Z,1355.63
2018-05-05T12:08:31.805Z,163.13
2018-05-05T12:09:31.809Z,821.25
2018-05-05T12:10:31.802Z,146.25
2018-05-05T12:11:31.818Z,140.63
2018-05-05T12:12:31.814Z,151.88
2018-05-05T12:13:31.876Z,146.25
2018-05-05T12:14:31.820Z,123.75
2018-05-05T12:15:31.812Z,123.75
2018-05-05T12:16:31.817Z,135.00
2018-05-05T12:17:31.823Z,140.63
2018-05-05T12:18:31.832Z,123.75
2018-05-05T12:19:31.861Z,135.00
2018-05-05T12:20:31.893Z,185.63
2018-05-05T12:21:31.880Z,241.88
2018-05-05T12:22:31.828Z,382.50
2018-05-05T12:23:31.838Z,275.63
2018-05-05T12:24:31.836Z,2868.75
2018-05-05T12:25:31.852Z,2368.13
2018-05-05T12:26:31.854Z,506.25
2018-05-05T12:27:31.841Z,691.88
2018-05-05T12:28:31.837Z,247.50
2018-05-05T12:29:31.850Z,1440.00
2018-05-05T12:30:31.849Z,455.63
2018-05-05T12:31:31.865Z,157.50
2018-05-05T12:32:31.828Z,135.00
2018-05-05T12:33:31.835Z,151.88
2018-05-05T12:34:31.828Z,140.63
2018-05-05T12:35:31.822Z,129.38
2018-05-05T12:36:31.878Z,168.75
2018-05-05T12:37:31.827Z,129.38
2018-05-05T12:38:31.864Z,1395.00
2018-05-05T12:39:31.815Z,253.13
2018-05-05T12:40:31.822Z,556.88
2018-05-05T12:41:31.808Z,123.75
2018-05-05T12:42:31.842Z,168.75
2018-05-05T12:43:31.816Z,123.75
2018-05-05T12:44:31.903Z,118.13
2018-05-05T12:45:31.830Z,123.75
2018-05-05T12:46:31.833Z,123.75
2018-05-05T12:47:31.851Z,140.63
2018-05-05T12:48:31.813Z,123.75
2018-05-05T12:49:31.804Z,118.13
2018-05-05T12:50:31.805Z,123.75